createdAt,value
2019-04-28T00:01:38.486Z,100.00
2019-04-28T00:04:06.912Z,100.00
2019-04-28T00:06:36.251Z,100.00
2019-04-28T00:09:06.890Z,100.00
2019-04-28T00:11:35.503Z,100.00
2019-04-28T00:14:03.877Z,100.00
2019-04-28T00:16:32.271Z,100.00
2019-04-28T00:19:01.217Z,100.00
2019-04-28T00:21:43.207Z,100.00
2019-04-28T00:24:25.428Z,100.00
2019-04-28T00:26:55.387Z,100.00
2019-04-28T00:29:23.823Z,100.00
2019-04-28T00:31:52.184Z,100.00
2019-04-28T00:34:21.373Z,100.00
2019-04-28T00:36:51.558Z,100.00
2019-04-28T00:39:21.058Z,100.00
2019-04-28T00:41:51.607Z,100.00
2019-04-28T00:44:21.782Z,100.00
2019-04-28T00:46:51.176Z,100.00
2019-04-28T00:49:23.290Z,100.00
2019-04-28T00:51:51.833Z,100.00
2019-04-28T00:54:21.756Z,100.00
2019-04-28T00:56:51.721Z,100.00
2019-04-28T00:59:21.691Z,100.00
2019-04-28T01:01:58.229Z,100.00
2019-04-28T01:04:26.528Z,100.00
2019-04-28T01:06:54.832Z,100.00
2019-04-28T01:09:23.299Z,100.00
2019-04-28T01:11:53.447Z,100.00
2019-04-28T01:14:22.078Z,100.00
2019-04-28T01:16:52.017Z,100.00
2019-04-28T01:19:25.168Z,100.00
2019-04-28T01:21:57.708Z,100.00
2019-04-28T01:24:26.093Z,100.00
2019-04-28T01:26:56.154Z,100.00
2019-04-28T01:29:24.474Z,100.00
2019-04-28T01:32:10.689Z,100.00
2019-04-28T01:34:40.002Z,100.00
2019-04-28T01:37:09.721Z,100.00
2019-04-28T01:39:41.033Z,100.00
2019-04-28T01:42:10.521Z,100.00
2019-04-28T01:44:39.545Z,100.00
2019-04-28T01:47:10.471Z,100.00
2019-04-28T01:49:40.572Z,100.00
2019-04-28T01:52:10.429Z,100.00
2019-04-28T01:54:40.253Z,100.00
2019-04-28T01:57:10.149Z,100.00
2019-04-28T01:59:40.277Z,100.00
2019-04-28T02:02:10.173Z,100.00
2019-04-28T02:04:40.212Z,100.00
2019-04-28T02:07:10.896Z,100.00
2019-04-28T02:09:39.552Z,100.00
2019-04-28T02:12:07.919Z,100.00
2019-04-28T02:14:36.578Z,100.00
2019-04-28T02:17:05.215Z,100.00
2019-04-28T02:19:33.608Z,100.00
2019-04-28T02:22:21.471Z,100.00
2019-04-28T02:24:50.512Z,100.00
2019-04-28T02:27:20.368Z,100.00
2019-04-28T02:29:49.889Z,100.00
2019-04-28T02:32:23.853Z,100.00
2019-04-28T02:34:50.683Z,100.00
2019-04-28T02:37:20.567Z,100.00
2019-04-28T02:39:50.556Z,100.00
2019-04-28T02:42:20.860Z,100.00
2019-04-28T02:44:50.454Z,100.00
2019-04-28T02:47:21.898Z,100.00
2019-04-28T02:49:50.924Z,100.00
2019-04-28T02:52:30.907Z,100.00
2019-04-28T02:55:03.068Z,100.00
2019-04-28T02:57:30.857Z,100.00
2019-04-28T03:00:00.471Z,100.00
2019-04-28T03:02:31.651Z,100.00
2019-04-28T03:05:00.314Z,100.00
2019-04-28T03:07:31.234Z,100.00
2019-04-28T03:10:03.219Z,100.00
2019-04-28T03:12:31.397Z,100.00
2019-04-28T03:15:00.623Z,100.00
2019-04-28T03:17:31.047Z,100.00
2019-04-28T03:20:01.098Z,100.00
2019-04-28T03:22:32.933Z,100.00
2019-04-28T03:25:01.096Z,100.00
2019-04-28T03:27:36.970Z,100.00
2019-04-28T03:30:13.356Z,100.00
2019-04-28T03:32:52.444Z,100.00
2019-04-28T03:35:13.584Z,100.00
2019-04-28T03:37:42.155Z,100.00
2019-04-28T03:40:11.483Z,100.00
2019-04-28T03:42:41.104Z,100.00
2019-04-28T03:45:13.340Z,100.00
2019-04-28T03:47:41.655Z,100.00
2019-04-28T03:50:10.599Z,100.00
2019-04-28T03:52:41.445Z,100.00
2019-04-28T03:55:11.096Z,100.00
2019-04-28T03:57:41.269Z,100.00
2019-04-28T04:00:11.336Z,100.00
2019-04-28T04:02:41.193Z,100.00
2019-04-28T04:05:11.126Z,100.00
2019-04-28T04:07:42.795Z,100.00
2019-04-28T04:10:16.091Z,100.00
2019-04-28T04:12:46.342Z,100.00
2019-04-28T04:15:24.598Z,100.00
2019-04-28T04:18:03.610Z,100.00
2019-04-28T04:20:32.204Z,100.00
2019-04-28T04:23:01.413Z,100.00
2019-04-28T04:25:31.393Z,100.00
2019-04-28T04:28:03.453Z,100.00
2019-04-28T04:30:31.097Z,100.00
2019-04-28T04:33:01.239Z,100.00
2019-04-28T04:35:31.767Z,100.00
2019-04-28T04:38:00.773Z,100.00
2019-04-28T04:40:31.756Z,100.00
2019-04-28T04:43:01.626Z,100.00
2019-04-28T04:45:30.495Z,100.00
2019-04-28T04:48:00.628Z,100.00
2019-04-28T04:50:31.296Z,100.00
2019-04-28T04:53:02.327Z,100.00
2019-04-28T04:55:31.593Z,100.00
2019-04-28T04:58:00.903Z,100.00
2019-04-28T05:00:46.765Z,100.00
2019-04-28T05:03:22.878Z,100.00
2019-04-28T05:05:51.174Z,100.00
2019-04-28T05:08:20.294Z,100.00
2019-04-28T05:10:50.292Z,100.00
2019-04-28T05:13:20.062Z,100.00
2019-04-28T05:15:50.697Z,100.00
2019-04-28T05:18:19.978Z,100.00
2019-04-28T05:20:50.335Z,100.00
2019-04-28T05:23:26.202Z,100.00
2019-04-28T05:25:54.526Z,100.00
2019-04-28T05:28:22.827Z,100.00
2019-04-28T05:30:51.122Z,100.00
2019-04-28T05:33:31.994Z,100.00
2019-04-28T05:35:59.227Z,100.00
2019-04-28T05:38:30.369Z,100.00
2019-04-28T05:41:02.382Z,100.00
2019-04-28T05:43:29.925Z,100.00
2019-04-28T05:46:00.285Z,100.00
2019-04-28T05:48:36.654Z,100.00
2019-04-28T05:51:06.670Z,100.00
2019-04-28T05:53:36.596Z,100.00
2019-04-28T05:56:21.378Z,100.00
2019-04-28T05:58:51.314Z,100.00
2019-04-28T06:01:21.338Z,100.00
2019-04-28T06:03:49.775Z,100.00
2019-04-28T06:06:20.437Z,100.00
2019-04-28T06:09:05.685Z,100.00
2019-04-28T06:11:39.809Z,100.00
2019-04-28T06:14:09.941Z,100.00
2019-04-28T06:16:40.436Z,100.00
2019-04-28T06:19:10.283Z,100.00
2019-04-28T06:21:38.770Z,100.00
2019-04-28T06:24:07.063Z,100.00
2019-04-28T06:26:35.363Z,100.00
2019-04-28T06:29:03.679Z,100.00
2019-04-28T06:31:32.290Z,100.00
2019-04-28T06:34:00.627Z,100.00
2019-04-28T06:36:29.261Z,100.00
2019-04-28T06:38:57.550Z,100.00
2019-04-28T06:41:25.869Z,100.00
2019-04-28T06:43:54.162Z,100.00
2019-04-28T06:46:22.892Z,100.00
2019-04-28T06:48:51.183Z,100.00
2019-04-28T06:51:19.511Z,100.00
2019-04-28T06:53:47.810Z,100.00
2019-04-28T06:56:16.105Z,100.00
2019-04-28T06:58:44.428Z,100.00
2019-04-28T07:01:13.081Z,100.00
2019-04-28T07:03:41.399Z,100.00
2019-04-28T07:06:09.691Z,100.00
2019-04-28T07:08:38.024Z,100.00
2019-04-28T07:11:06.711Z,100.00
2019-04-28T07:13:35.080Z,99.77
2019-04-28T07:16:03.463Z,100.00
2019-04-28T07:18:31.764Z,100.00
2019-04-28T07:21:01.733Z,100.00
2019-04-28T07:23:31.398Z,100.00
2019-04-28T07:25:59.710Z,98.57
2019-04-28T07:28:28.003Z,99.67
2019-04-28T07:30:56.838Z,96.84
2019-04-28T07:33:35.513Z,93.27
2019-04-28T07:35:55.442Z,93.70
2019-04-28T07:38:23.755Z,91.63
2019-04-28T07:40:52.176Z,92.41
2019-04-28T07:43:20.575Z,90.47
2019-04-28T07:45:48.888Z,92.32
2019-04-28T07:48:17.558Z,92.51
2019-04-28T07:50:45.846Z,93.91
2019-04-28T07:53:15.867Z,88.70
2019-04-28T07:55:44.229Z,85.83
2019-04-28T07:58:12.542Z,88.12
2019-04-28T08:00:40.907Z,85.82
2019-04-28T08:03:09.206Z,83.01
2019-04-28T08:05:37.517Z,80.91
2019-04-28T08:08:05.808Z,83.05
2019-04-28T08:10:34.428Z,83.53
2019-04-28T08:13:02.876Z,86.08
2019-04-28T08:15:31.425Z,87.64
2019-04-28T08:18:00.079Z,88.40
2019-04-28T08:20:28.370Z,87.15
2019-04-28T08:22:56.678Z,87.96
2019-04-28T08:25:25.440Z,90.02
2019-04-28T08:27:53.848Z,89.29
2019-04-28T08:30:22.605Z,90.20
2019-04-28T08:33:04.924Z,89.46
2019-04-28T08:35:33.725Z,89.47
2019-04-28T08:38:02.399Z,93.21
2019-04-28T08:40:30.766Z,91.93
2019-04-28T08:42:59.024Z,91.38
2019-04-28T08:45:27.329Z,91.07
2019-04-28T08:47:57.941Z,90.98
2019-04-28T08:50:25.674Z,92.80
2019-04-28T08:52:54.028Z,93.45
2019-04-28T08:55:22.325Z,90.42
2019-04-28T08:57:50.648Z,90.15
2019-04-28T09:00:20.755Z,91.25
2019-04-28T09:02:49.139Z,90.36
2019-04-28T09:05:17.434Z,87.75
2019-04-28T09:07:47.389Z,90.30
2019-04-28T09:10:15.756Z,86.31
2019-04-28T09:12:44.072Z,87.76
2019-04-28T09:15:12.639Z,85.33
2019-04-28T09:17:40.974Z,85.78
2019-04-28T09:20:10.109Z,82.23
2019-04-28T09:22:38.550Z,81.29
2019-04-28T09:25:07.439Z,81.23
2019-04-28T09:27:35.725Z,77.94
2019-04-28T09:30:05.874Z,76.05
2019-04-28T09:32:34.678Z,76.55
2019-04-28T09:35:03.985Z,73.53
2019-04-28T09:37:32.227Z,75.74
2019-04-28T09:40:04.995Z,79.34
2019-04-28T09:42:34.957Z,76.01
2019-04-28T09:45:21.399Z,70.22
2019-04-28T09:47:49.720Z,74.01
2019-04-28T09:50:18.021Z,77.23
2019-04-28T09:52:48.739Z,78.52
2019-04-28T09:55:16.433Z,77.53
2019-04-28T09:57:44.821Z,76.60
2019-04-28T10:00:13.254Z,73.54
2019-04-28T10:02:41.876Z,72.58
2019-04-28T10:05:11.064Z,71.80
2019-04-28T10:07:39.364Z,71.72
2019-04-28T10:10:08.735Z,69.89
2019-04-28T10:12:37.098Z,70.64
2019-04-28T10:15:09.929Z,67.90
2019-04-28T10:17:38.417Z,68.00
2019-04-28T10:20:08.469Z,64.15
2019-04-28T10:22:36.884Z,63.90
2019-04-28T10:25:07.820Z,66.60
2019-04-28T10:27:36.448Z,68.06
2019-04-28T10:30:09.542Z,68.93
2019-04-28T10:32:37.837Z,70.36
2019-04-28T10:35:08.708Z,72.98
2019-04-28T10:37:37.389Z,72.74
2019-04-28T10:40:14.671Z,71.67
2019-04-28T10:42:42.980Z,70.38
2019-04-28T10:45:13.097Z,70.82
2019-04-28T10:47:41.737Z,68.69
2019-04-28T10:50:10.762Z,64.39
2019-04-28T10:52:39.079Z,65.05
2019-04-28T10:55:08.209Z,63.00
2019-04-28T10:57:36.533Z,62.20
2019-04-28T11:00:08.596Z,64.53
2019-04-28T11:02:36.902Z,64.70
2019-04-28T11:05:09.108Z,64.99
2019-04-28T11:07:37.663Z,64.76
2019-04-28T11:10:09.724Z,64.48
2019-04-28T11:12:38.094Z,62.99
2019-04-28T11:15:09.714Z,63.72
2019-04-28T11:17:38.391Z,63.57
2019-04-28T11:20:07.292Z,61.21
2019-04-28T11:22:35.594Z,59.68
2019-04-28T11:25:06.428Z,60.03
2019-04-28T11:27:34.741Z,61.39
2019-04-28T11:30:04.482Z,60.41
2019-04-28T11:32:32.779Z,60.39
2019-04-28T11:35:21.446Z,62.05
2019-04-28T11:37:41.559Z,60.31
2019-04-28T11:40:09.923Z,60.38
2019-04-28T11:42:38.255Z,61.55
2019-04-28T11:45:07.375Z,56.38
2019-04-28T11:47:35.761Z,57.63
2019-04-28T11:50:04.210Z,57.63
2019-04-28T11:52:32.507Z,57.57
2019-04-28T11:55:01.434Z,56.36
2019-04-28T11:57:29.720Z,56.39
2019-04-28T11:59:58.398Z,56.62
2019-04-28T12:02:26.779Z,55.81
2019-04-28T12:04:56.731Z,55.81
2019-04-28T12:07:25.482Z,56.91
2019-04-28T12:10:04.467Z,56.16
2019-04-28T12:12:46.015Z,54.76
2019-04-28T12:15:32.013Z,53.38
2019-04-28T12:18:04.682Z,51.95
2019-04-28T12:20:33.112Z,51.73
2019-04-28T12:23:01.485Z,51.83
2019-04-28T12:25:29.825Z,50.87
2019-04-28T12:27:58.619Z,50.60
2019-04-28T12:30:26.936Z,51.07
2019-04-28T12:32:55.588Z,51.33
2019-04-28T12:35:23.925Z,50.97
2019-04-28T12:37:52.227Z,50.36
2019-04-28T12:40:22.607Z,49.15
2019-04-28T12:42:50.584Z,50.08
2019-04-28T12:45:18.948Z,50.85
2019-04-28T12:47:47.269Z,49.75
2019-04-28T12:50:23.184Z,53.41
2019-04-28T12:52:52.059Z,46.16
2019-04-28T12:55:20.363Z,44.79
2019-04-28T12:57:48.691Z,47.00
2019-04-28T13:00:28.042Z,44.59
2019-04-28T13:03:15.873Z,46.40
2019-04-28T13:05:45.993Z,46.64
2019-04-28T13:08:14.732Z,46.39
2019-04-28T13:10:43.107Z,44.34
2019-04-28T13:13:11.414Z,42.64
2019-04-28T13:15:40.274Z,44.17
2019-04-28T13:18:08.647Z,43.21
2019-04-28T13:20:36.977Z,41.96
2019-04-28T13:23:05.342Z,41.70
2019-04-28T13:25:33.649Z,42.90
2019-04-28T13:28:01.956Z,42.21
2019-04-28T13:30:30.259Z,43.46
2019-04-28T13:32:58.850Z,39.23
2019-04-28T13:35:27.214Z,39.17
2019-04-28T13:37:55.533Z,39.37
2019-04-28T13:40:28.038Z,39.49
2019-04-28T13:42:56.376Z,39.50
2019-04-28T13:45:26.325Z,40.40
2019-04-28T13:47:54.646Z,40.83
2019-04-28T13:50:25.834Z,42.28
2019-04-28T13:52:54.190Z,44.16
2019-04-28T13:55:27.178Z,43.90
2019-04-28T13:57:56.891Z,44.53
2019-04-28T14:00:33.038Z,43.83
2019-04-28T14:03:02.966Z,45.28
2019-04-28T14:05:36.317Z,43.38
2019-04-28T14:08:04.579Z,43.06
2019-04-28T14:10:32.896Z,41.45
2019-04-28T14:13:01.210Z,42.31
2019-04-28T14:15:29.751Z,40.63
2019-04-28T14:17:58.312Z,40.19
2019-04-28T14:20:26.782Z,41.52
2019-04-28T14:22:55.222Z,40.92
2019-04-28T14:25:23.952Z,39.86
2019-04-28T14:27:52.280Z,39.99
2019-04-28T14:30:20.746Z,42.41
2019-04-28T14:32:49.334Z,41.47
2019-04-28T14:35:18.097Z,42.34
2019-04-28T14:37:46.768Z,41.67
2019-04-28T14:40:15.473Z,40.68
2019-04-28T14:42:43.782Z,41.47
2019-04-28T14:45:12.779Z,41.20
2019-04-28T14:47:41.088Z,39.89
2019-04-28T14:50:09.803Z,41.24
2019-04-28T14:52:38.141Z,39.34
2019-04-28T14:55:07.445Z,38.87
2019-04-28T14:57:35.770Z,40.44
2019-04-28T15:00:06.480Z,42.58
2019-04-28T15:02:45.587Z,43.12
2019-04-28T15:05:15.721Z,41.86
2019-04-28T15:07:54.387Z,40.16
2019-04-28T15:10:42.676Z,39.14
2019-04-28T15:13:10.986Z,39.07
2019-04-28T15:15:39.425Z,37.76
2019-04-28T15:18:07.852Z,36.65
2019-04-28T15:20:36.144Z,37.33
2019-04-28T15:23:04.943Z,39.37
2019-04-28T15:25:33.255Z,39.37
2019-04-28T15:28:01.556Z,41.69
2019-04-28T15:30:29.947Z,38.60
2019-04-28T15:32:58.307Z,40.35
2019-04-28T15:35:26.684Z,41.38
2019-04-28T15:37:54.978Z,37.38
2019-04-28T15:40:23.375Z,36.69
2019-04-28T15:42:51.787Z,37.08
2019-04-28T15:45:20.487Z,38.29
2019-04-28T15:47:48.956Z,39.39
2019-04-28T15:50:17.311Z,40.85
2019-04-28T15:52:45.609Z,38.99
2019-04-28T15:55:15.559Z,38.06
2019-04-28T15:57:44.275Z,38.00
2019-04-28T16:00:14.647Z,36.64
2019-04-28T16:02:42.935Z,36.51
2019-04-28T16:05:11.474Z,37.40
2019-04-28T16:07:39.860Z,34.78
2019-04-28T16:10:08.592Z,36.53
2019-04-28T16:12:36.978Z,35.76
2019-04-28T16:15:07.467Z,35.52
2019-04-28T16:17:36.176Z,38.58
2019-04-28T16:20:06.207Z,39.64
2019-04-28T16:22:34.601Z,40.42
2019-04-28T16:25:03.332Z,40.26
2019-04-28T16:27:31.653Z,41.21
2019-04-28T16:29:59.954Z,40.77
2019-04-28T16:32:28.249Z,40.12
2019-04-28T16:34:56.568Z,39.67
2019-04-28T16:37:38.217Z,39.96
2019-04-28T16:39:55.853Z,42.54
2019-04-28T16:42:28.547Z,43.38
2019-04-28T16:45:08.108Z,41.23
2019-04-28T16:47:36.977Z,42.58
2019-04-28T16:50:06.879Z,44.58
2019-04-28T16:52:35.192Z,45.13
2019-04-28T16:55:15.425Z,46.36
2019-04-28T16:57:45.375Z,46.53
2019-04-28T17:00:15.477Z,47.22
2019-04-28T17:02:44.660Z,48.23
2019-04-28T17:05:13.277Z,48.05
2019-04-28T17:07:52.553Z,45.98
2019-04-28T17:10:12.346Z,47.64
2019-04-28T17:12:40.654Z,49.06
2019-04-28T17:15:09.304Z,49.52
2019-04-28T17:17:37.601Z,49.55
2019-04-28T17:20:07.190Z,50.25
2019-04-28T17:22:35.515Z,49.24
2019-04-28T17:25:05.982Z,47.78
2019-04-28T17:27:34.350Z,46.69
2019-04-28T17:30:03.286Z,49.26
2019-04-28T17:32:31.602Z,47.83
2019-04-28T17:34:59.893Z,49.29
2019-04-28T17:37:28.270Z,50.77
2019-04-28T17:39:56.567Z,53.05
2019-04-28T17:42:24.967Z,55.02
2019-04-28T17:44:53.716Z,55.26
2019-04-28T17:47:22.961Z,55.79
2019-04-28T17:49:51.499Z,57.01
2019-04-28T17:52:19.792Z,57.48
2019-04-28T17:54:48.336Z,57.17
2019-04-28T17:57:16.706Z,57.77
2019-04-28T17:59:46.071Z,58.69
2019-04-28T18:02:32.490Z,58.74
2019-04-28T18:05:05.874Z,58.89
2019-04-28T18:07:35.877Z,59.74
2019-04-28T18:10:08.481Z,60.73
2019-04-28T18:12:37.252Z,64.15
2019-04-28T18:15:12.190Z,62.80
2019-04-28T18:17:48.068Z,63.81
2019-04-28T18:20:16.925Z,64.05
2019-04-28T18:22:45.243Z,63.77
2019-04-28T18:25:14.217Z,64.98
2019-04-28T18:27:42.530Z,64.39
2019-04-28T18:30:12.626Z,65.60
2019-04-28T18:35:26.349Z,66.08
2019-04-28T18:38:12.397Z,66.09
2019-04-28T18:40:51.203Z,66.08
2019-04-28T18:43:23.840Z,67.06
2019-04-28T18:45:53.305Z,67.10
2019-04-28T18:48:21.701Z,66.88
2019-04-28T18:50:50.443Z,66.23
2019-04-28T18:53:18.749Z,67.52
2019-04-28T18:55:47.093Z,67.72
2019-04-28T18:58:15.391Z,68.58
2019-04-28T19:00:45.375Z,68.97
2019-04-28T19:03:13.707Z,68.52
2019-04-28T19:05:43.663Z,67.96
2019-04-28T19:08:13.602Z,69.89
2019-04-28T19:10:55.796Z,69.49
2019-04-28T19:13:43.693Z,69.62
2019-04-28T19:16:13.639Z,70.42
2019-04-28T19:18:55.380Z,69.31
2019-04-28T19:21:23.786Z,70.98
2019-04-28T19:23:54.159Z,70.19
2019-04-28T19:26:22.682Z,71.26
2019-04-28T19:28:51.385Z,70.89
2019-04-28T19:31:19.711Z,70.84
2019-04-28T19:33:48.150Z,71.16
2019-04-28T19:36:16.576Z,71.33
2019-04-28T19:38:45.035Z,72.68
2019-04-28T19:41:13.709Z,72.03
2019-04-28T19:43:42.131Z,71.83
2019-04-28T19:46:12.117Z,72.67
2019-04-28T19:48:40.763Z,73.28
2019-04-28T19:51:09.187Z,73.82
2019-04-28T19:53:37.488Z,73.61
2019-04-28T19:56:07.446Z,73.63
2019-04-28T19:58:37.430Z,74.84
2019-04-28T20:01:07.455Z,75.43
2019-04-28T20:03:35.819Z,75.56
2019-04-28T20:06:04.183Z,75.42
2019-04-28T20:08:32.555Z,76.09
2019-04-28T20:11:00.846Z,77.77
2019-04-28T20:13:31.455Z,78.23
2019-04-28T20:15:59.258Z,79.31
2019-04-28T20:18:29.538Z,80.60
2019-04-28T20:20:58.007Z,81.10
2019-04-28T20:23:26.333Z,81.64
2019-04-28T20:25:54.673Z,81.89
2019-04-28T20:28:23.429Z,81.96
2019-04-28T20:30:51.745Z,82.33
2019-04-28T20:33:20.351Z,82.79
2019-04-28T20:35:50.383Z,83.80
2019-04-28T20:38:26.485Z,83.96
2019-04-28T20:40:56.442Z,84.73
2019-04-28T20:43:26.602Z,85.36
2019-04-28T20:45:54.925Z,85.53
2019-04-28T20:48:23.684Z,86.56
2019-04-28T20:50:52.028Z,86.32
2019-04-28T20:53:20.426Z,87.20
2019-04-28T20:55:48.717Z,87.05
2019-04-28T20:58:17.171Z,87.35
2019-04-28T21:00:45.494Z,87.73
2019-04-28T21:03:13.918Z,87.77
2019-04-28T21:05:42.272Z,88.75
2019-04-28T21:08:10.595Z,88.46
2019-04-28T21:10:39.184Z,89.64
2019-04-28T21:13:07.551Z,89.08
2019-04-28T21:15:36.264Z,89.27
2019-04-28T21:18:04.700Z,88.58
2019-04-28T21:20:33.321Z,89.04
2019-04-28T21:23:01.649Z,88.63
2019-04-28T21:25:30.410Z,89.25
2019-04-28T21:27:59.505Z,89.79
2019-04-28T21:30:27.806Z,90.23
2019-04-28T21:32:56.470Z,89.93
2019-04-28T21:35:25.021Z,90.67
2019-04-28T21:37:53.453Z,90.24
2019-04-28T21:40:22.429Z,91.11
2019-04-28T21:43:01.541Z,91.81
2019-04-28T21:45:46.242Z,92.55
2019-04-28T21:48:16.260Z,92.94
2019-04-28T21:50:45.248Z,92.75
2019-04-28T21:53:13.575Z,93.27
2019-04-28T21:55:41.879Z,93.97
2019-04-28T21:58:10.179Z,94.31
2019-04-28T22:00:50.747Z,91.59
2019-04-28T22:03:19.061Z,95.20
2019-04-28T22:05:47.351Z,97.29
2019-04-28T22:08:15.735Z,98.36
2019-04-28T22:10:44.047Z,99.39
2019-04-28T22:13:12.364Z,100.00
2019-04-28T22:15:40.692Z,100.00
2019-04-28T22:18:09.126Z,100.00
2019-04-28T22:20:37.807Z,100.00
2019-04-28T22:23:18.259Z,100.00
2019-04-28T22:25:40.818Z,100.00
2019-04-28T22:28:09.314Z,100.00
2019-04-28T22:30:37.675Z,100.00
2019-04-28T22:33:07.015Z,100.00
2019-04-28T22:35:36.390Z,100.00
2019-04-28T22:38:05.538Z,100.00
2019-04-28T22:40:33.834Z,100.00
2019-04-28T22:43:02.233Z,100.00
2019-04-28T22:45:30.524Z,100.00
2019-04-28T22:47:58.820Z,100.00
2019-04-28T22:50:35.499Z,100.00
2019-04-28T22:53:04.180Z,100.00
2019-04-28T22:55:34.270Z,100.00
2019-04-28T22:58:06.873Z,100.00
2019-04-28T23:00:36.917Z,100.00
2019-04-28T23:03:05.749Z,100.00
2019-04-28T23:05:34.042Z,100.00
2019-04-28T23:08:02.446Z,100.00
2019-04-28T23:10:30.747Z,100.00
2019-04-28T23:12:59.135Z,100.00
2019-04-28T23:15:27.806Z,100.00
2019-04-28T23:17:56.186Z,100.00
2019-04-28T23:20:26.195Z,100.00
2019-04-28T23:22:54.933Z,100.00
2019-04-28T23:25:23.246Z,100.00
2019-04-28T23:27:51.544Z,100.00
2019-04-28T23:30:40.780Z,100.00
2019-04-28T23:33:09.443Z,100.00
2019-04-28T23:35:37.767Z,100.00
2019-04-28T23:38:06.076Z,100.00
2019-04-28T23:40:36.044Z,100.00
2019-04-28T23:43:06.162Z,100.00
2019-04-28T23:45:34.890Z,100.00
2019-04-28T23:48:03.202Z,100.00
2019-04-28T23:50:33.139Z,100.00
2019-04-28T23:53:03.097Z,100.00
2019-04-28T23:55:31.392Z,100.00
2019-04-28T23:57:59.929Z,100.00
